地図

経路データ

SID SEASON NUMBER BASIN SUBBASIN NAME ISO_TIME NATURE LAT LON WMO_WIND WMO_PRES WMO_AGENCY TRACK_TYPE DIST2LAND LANDFALL IFLAG USA_AGENCY USA_ATCF_ID USA_LAT USA_LON USA_RECORD USA_STATUS USA_WIND USA_PRES USA_SSHS USA_R34_NE USA_R34_SE USA_R34_SW USA_R34_NW USA_R50_NE USA_R50_SE USA_R50_SW USA_R50_NW USA_R64_NE USA_R64_SE USA_R64_SW USA_R64_NW USA_POCI USA_ROCI USA_RMW USA_EYE TOKYO_LAT TOKYO_LON TOKYO_GRADE TOKYO_WIND TOKYO_PRES TOKYO_R50_DIR TOKYO_R50_LONG TOKYO_R50_SHORT TOKYO_R30_DIR TOKYO_R30_LONG TOKYO_R30_SHORT TOKYO_LAND CMA_LAT CMA_LON CMA_CAT CMA_WIND CMA_PRES HKO_LAT HKO_LON HKO_CAT HKO_WIND HKO_PRES NEWDELHI_LAT NEWDELHI_LON NEWDELHI_GRADE NEWDELHI_WIND NEWDELHI_PRES NEWDELHI_CI NEWDELHI_DP NEWDELHI_POCI REUNION_LAT REUNION_LON REUNION_TYPE REUNION_WIND REUNION_PRES REUNION_TNUM REUNION_CI REUNION_RMW REUNION_R34_NE REUNION_R34_SE REUNION_R34_SW REUNION_R34_NW REUNION_R50_NE REUNION_R50_SE REUNION_R50_SW REUNION_R50_NW REUNION_R64_NE REUNION_R64_SE REUNION_R64_SW REUNION_R64_NW BOM_LAT BOM_LON BOM_TYPE BOM_WIND BOM_PRES BOM_TNUM BOM_CI BOM_RMW BOM_R34_NE BOM_R34_SE BOM_R34_SW BOM_R34_NW BOM_R50_NE BOM_R50_SE BOM_R50_SW BOM_R50_NW BOM_R64_NE BOM_R64_SE BOM_R64_SW BOM_R64_NW BOM_ROCI BOM_POCI BOM_EYE BOM_POS_METHOD BOM_PRES_METHOD NADI_LAT NADI_LON NADI_CAT NADI_WIND NADI_PRES WELLINGTON_LAT WELLINGTON_LON WELLINGTON_WIND WELLINGTON_PRES DS824_LAT DS824_LON DS824_STAGE DS824_WIND DS824_PRES TD9636_LAT TD9636_LON TD9636_STAGE TD9636_WIND TD9636_PRES TD9635_LAT TD9635_LON TD9635_WIND TD9635_PRES TD9635_ROCI NEUMANN_LAT NEUMANN_LON NEUMANN_CLASS NEUMANN_WIND NEUMANN_PRES MLC_LAT MLC_LON MLC_CLASS MLC_WIND MLC_PRES USA_GUST BOM_GUST BOM_GUST_PER REUNION_GUST REUNION_GUST_PER USA_SEAHGT USA_SEARAD_NE USA_SEARAD_SE USA_SEARAD_SW USA_SEARAD_NW STORM_SPEED STORM_DIR
1927151N14131 1927 26 WP MM NOT_NAMED 1927-05-31 10:00:00 NR 14.2000 130.500 main 586 565 __________O___ -1 14.2000 130.500 2 13 309
1927151N14131 1927 26 WP MM NOT_NAMED 1927-05-31 12:00:00 NR 14.4719 130.151 main 570 536 __________P___ -1 14.4719 130.151 2 13 309
1927151N14131 1927 26 WP MM NOT_NAMED 1927-05-31 15:00:00 NR 14.8773 129.639 main 536 522 __________P___ -1 14.8773 129.639 2 13 310
1927151N14131 1927 26 WP MM NOT_NAMED 1927-05-31 18:00:00 NR 15.2777 129.158 main 529 504 __________P___ -1 15.2777 129.158 2 12 312
1927151N14131 1927 26 WP MM NOT_NAMED 1927-05-31 21:00:00 NR 15.6709 128.728 main 504 499 __________P___ -1 15.6709 128.728 2 11 314
1927151N14131 1927 26 WP MM NOT_NAMED 1927-05-31 22:00:00 NR 15.8000 128.600 main 499 489 __________O___ -1 15.8000 128.600 2 10 318
1927151N14131 1927 26 WP MM NOT_NAMED 1927-06-01 00:00:00 NR 16.0547 128.367 main 495 479 __________P___ -1 16.0547 128.367 2 10 320
1927151N14131 1927 26 WP MM NOT_NAMED 1927-06-01 03:00:00 NR 16.4248 128.063 main 485 477 __________P___ -1 16.4248 128.063 2 9 322
1927151N14131 1927 26 WP MM NOT_NAMED 1927-06-01 06:00:00 NR 16.7750 127.785 main 488 480 __________P___ -1 16.7750 127.785 2 9 321
1927151N14131 1927 26 WP MM NOT_NAMED 1927-06-01 09:00:00 NR 17.0990 127.501 main 487 487 __________P___ -1 17.0990 127.501 2 8 319
1927151N14131 1927 26 WP MM NOT_NAMED 1927-06-01 10:00:00 NR 17.2000 127.400 main 488 482 __________O___ -1 17.2000 127.400 2 9 314
1927151N14131 1927 26 WP MM NOT_NAMED 1927-06-01 12:00:00 NR 17.3972 127.177 main 491 463 __________P___ -1 17.3972 127.177 2 9 310
1927151N14131 1927 26 WP MM NOT_NAMED 1927-06-01 15:00:00 NR 17.6680 126.825 main 463 425 __________P___ -1 17.6680 126.825 2 9 306
1927151N14131 1927 26 WP MM NOT_NAMED 1927-06-01 18:00:00 NR 17.9117 126.448 main 425 391 __________P___ -1 17.9117 126.448 2 9 302
1927151N14131 1927 26 WP MM NOT_NAMED 1927-06-01 21:00:00 NR 18.1315 126.042 main 391 380 __________P___ -1 18.1315 126.042 2 9 299
1927151N14131 1927 26 WP MM NOT_NAMED 1927-06-01 22:00:00 NR 18.2000 125.900 main 380 348 __________O___ -1 18.2000 125.900 2 9 294
1927151N14131 1927 26 WP MM NOT_NAMED 1927-06-02 00:00:00 NR 18.3124 125.624 main 348 306 __________P___ -1 18.3124 125.624 2 9 291
1927151N14131 1927 26 WP MM NOT_NAMED 1927-06-02 03:00:00 NR 18.4618 125.184 main 306 254 __________P___ -1 18.4618 125.184 2 9 289
1927151N14131 1927 26 WP MM NOT_NAMED 1927-06-02 06:00:00 NR 18.6188 124.708 main 254 205 __________P___ -1 18.6188 124.708 2 10 291
1927151N14131 1927 26 WP MM NOT_NAMED 1927-06-02 09:00:00 NR 18.8182 124.186 main 205 187 __________P___ -1 18.8182 124.186 2 11 293
1927151N14131 1927 26 WP MM NOT_NAMED 1927-06-02 10:00:00 NR 18.9000 124.000 main 187 157 __________O___ -1 18.9000 124.000 3 13 295
1927151N14131 1927 26 WP MM NOT_NAMED 1927-06-02 12:00:00 NR 19.1001 123.561 main 157 128 __________P___ -1 19.1001 123.561 3 15 297
1927151N14131 1927 26 WP MM NOT_NAMED 1927-06-02 15:00:00 NR 19.4503 122.856 main 138 130 __________P___ -1 19.4503 122.856 3 15 299
1927151N14131 1927 26 WP MM NOT_NAMED 1927-06-02 18:00:00 NR 19.8428 122.165 main 156 167 __________P___ -1 19.8428 122.165 3 15 304
1927151N14131 1927 26 WP MM NOT_NAMED 1927-06-02 21:00:00 NR 20.2590 121.566 main 193 175 __________P___ -1 20.2590 121.566 3 14 308
1927151N14131 1927 26 WP MM NOT_NAMED 1927-06-02 22:00:00 NR 20.4000 121.400 main 175 135 __________O___ -1 20.4000 121.400 4 12 316
1927151N14131 1927 26 WP MM NOT_NAMED 1927-06-03 00:00:00 NR 20.6761 121.129 main 135 89 __________P___ -1 20.6761 121.129 4 11 323
1927151N14131 1927 26 WP MM NOT_NAMED 1927-06-03 03:00:00 NR 21.1040 120.837 main 89 44 __________P___ -1 21.1040 120.837 4 10 333
1927151N14131 1927 26 WP MM NOT_NAMED 1927-06-03 06:00:00 NR 21.5370 120.666 main 44 10 __________P___ -1 21.5370 120.666 4 9 346
1927151N14131 1927 26 WP MM NOT_NAMED 1927-06-03 09:00:00 NR 21.9623 120.601 main 10 10 __________P___ -1 21.9623 120.601 4 9 355
1927151N14131 1927 26 WP MM NOT_NAMED 1927-06-03 10:00:00 NR 22.1000 120.600 main 10 0 __________O___ -1 22.1000 120.600 4 8 0
1927151N14131 1927 26 WP MM NOT_NAMED 1927-06-03 12:00:00 NR 22.3586 120.590 main 0 0 __________P___ -1 22.3586 120.590 4 8 5
1927151N14131 1927 26 WP MM NOT_NAMED 1927-06-03 15:00:00 NR 22.7339 120.658 main 0 0 __________P___ -1 22.7339 120.658 4 8 15
1927151N14131 1927 26 WP MM NOT_NAMED 1927-06-03 18:00:00 NR 23.1026 120.807 main 0 0 __________P___ -1 23.1026 120.807 4 8 24
1927151N14131 1927 26 WP MM NOT_NAMED 1927-06-03 21:00:00 NR 23.4740 121.019 main 0 0 __________P___ -1 23.4740 121.019 4 9 28
1927151N14131 1927 26 WP MM NOT_NAMED 1927-06-03 22:00:00 NR 23.6000 121.100 main 0 0 __________O___ -1 23.6000 121.100 4 9 27
1927151N14131 1927 26 WP MM NOT_NAMED 1927-06-04 00:00:00 NR 23.8844 121.244 main 0 0 __________P___ -1 23.8844 121.244 4 10 27
1927151N14131 1927 26 WP MM NOT_NAMED 1927-06-04 03:00:00 NR 24.3179 121.504 main 0 0 __________P___ -1 24.3179 121.504 4 10 31
1927151N14131 1927 26 WP MM NOT_NAMED 1927-06-04 06:00:00 NR 24.7319 121.814 main 0 0 __________P___ -1 24.7319 121.814 4 10 38
1927151N14131 1927 26 WP MM NOT_NAMED 1927-06-04 09:00:00 NR 25.0954 122.171 main 23 23 __________P___ -1 25.0954 122.171 4 10 43
1927151N14131 1927 26 WP MM NOT_NAMED 1927-06-04 10:00:00 NR 25.2000 122.300 main 37 37 __________O___ -1 25.2000 122.300 4 8 51
1927151N14131 1927 26 WP MM NOT_NAMED 1927-06-04 12:00:00 NR 25.3457 122.516 main 60 67 __________P___ -1 25.3457 122.516 4 7 59
1927151N14131 1927 26 WP MM NOT_NAMED 1927-06-04 15:00:00 NR 25.5071 122.875 main 106 106 __________P___ -1 25.5071 122.875 4 8 67
1927151N14131 1927 26 WP MM NOT_NAMED 1927-06-04 18:00:00 NR 25.6487 123.315 main 146 152 __________P___ -1 25.6487 123.315 4 10 71
1927151N14131 1927 26 WP MM NOT_NAMED 1927-06-04 21:00:00 NR 25.8246 123.877 main 210 210 __________P___ -1 25.8246 123.877 4 11 70
1927151N14131 1927 26 WP MM NOT_NAMED 1927-06-04 22:00:00 NR 25.9000 124.100 main 233 233 __________O___ -1 25.9000 124.100 4 15 69
1927151N14131 1927 26 WP MM NOT_NAMED 1927-06-05 00:00:00 NR 26.0830 124.640 main 288 297 __________P___ -1 26.0830 124.640 4 17 69
1927151N14131 1927 26 WP MM NOT_NAMED 1927-06-05 03:00:00 NR 26.4064 125.577 main 392 392 __________P___ -1 26.4064 125.577 4 19 68
1927151N14131 1927 26 WP MM NOT_NAMED 1927-06-05 06:00:00 NR 26.7895 126.588 main 501 501 __________P___ -1 26.7895 126.588 4 20 65
1927151N14131 1927 26 WP MM NOT_NAMED 1927-06-05 09:00:00 NR 27.2361 127.586 main 512 483 __________P___ -1 27.2361 127.586 4 20 62
1927151N14131 1927 26 WP MM NOT_NAMED 1927-06-05 10:00:00 NR 27.4000 127.900 main 479 413 __________O___ -1 27.4000 127.900 4 19 57
1927151N14131 1927 26 WP MM NOT_NAMED 1927-06-05 12:00:00 NR 27.7509 128.487 main 413 330 __________P___ -1 27.7509 128.487 4 18 53
1927151N14131 1927 26 WP MM NOT_NAMED 1927-06-05 15:00:00 NR 28.3261 129.278 main 330 243 __________P___ -1 28.3261 129.278 4 18 48
1927151N14131 1927 26 WP MM NOT_NAMED 1927-06-05 18:00:00 NR 28.9437 129.997 main 243 156 __________P___ -1 28.9437 129.997 4 18 44
1927151N14131 1927 26 WP MM NOT_NAMED 1927-06-05 21:00:00 NR 29.5846 130.676 main 156 135 __________P___ -1 29.5846 130.676 4 17 43
1927151N14131 1927 26 WP MM NOT_NAMED 1927-06-05 22:00:00 NR 29.8000 130.900 main 135 __________O___ -1 29.8000 130.900 7 17 42

デジタル台風データ・検索

IBTrACS Databaseについて

本データベースは、米国NOAAが公開する1842年以降の世界の熱帯低気圧のベストトラックデータアーカイブInternational Best Track Archive for Climate Stewardship (IBTrACS)を、ウェブで閲覧しやすい形式に変換したものです。

最終更新日:2021-12-06